Theo T — C6SY5 — position and weather

sailwx.info

Track history (hours):
 
Tides and Currents Weather Stations Pressure Air Temp Water Temp Dewpoint Dewpoint Depression Visibility Wind Speed Wind Dir Waves Ship Positions

Theo T

Last reported at 2017-Sep-07 03:00 UTC. Time now 2017-Sep-21 17:49 UTC.
Position N 25°44' W 079°26'.
Warning: this ship's position is 14 days out of date.

Length 227 m; draft 8.2 m.

Type: Tanker. MMSI: 311538000.

Date/timePositionNaut miles runAvg speedWind from/ knotsBaromVisibWave heightAir tempDewpointWater temp
2017-Sep-07 03:00N 25°44' W 079°26'610.8
2017-Sep-07 02:30N 25°49' W 079°25'510.7
2017-Sep-07 02:00N 25°55' W 079°24'  
2017-Sep-03 04:35N 26°28' W 079°03'1 0.8
2017-Sep-03 03:53N 26°28' W 079°02'0 0.6
2017-Sep-03 03:11N 26°27' W 079°02'0 0.6
2017-Sep-03 03:00N 26°27' W 079°02'1 0.7
2017-Sep-03 02:09N 26°27' W 079°01'0 0.7
2017-Sep-03 01:55N 26°27' W 079°01'0 0.6
2017-Sep-03 01:30N 26°27' W 079°01'0 0.6
2017-Sep-03 00:51N 26°27' W 079°00'4 0.5
2017-Sep-02 15:36N 26°26' W 079°05'2 1.0
2017-Sep-02 14:00N 26°25' W 079°04'0 0.8
2017-Sep-02 13:30N 26°25' W 079°03'0 0.7
2017-Sep-02 13:00N 26°25' W 079°03'1 0.8
2017-Sep-02 11:40N 26°25' W 079°02'0 0.5
2017-Sep-02 11:30N 26°25' W 079°02'0 0.5
2017-Sep-02 10:58N 26°25' W 079°01'3 0.1
2017-Sep-01 04:37N 26°26' W 078°58'3 0.5
2017-Aug-31 23:17N 26°26' W 079°00'0 0.5
2017-Aug-31 22:54N 26°26' W 079°00'4 0.2
2017-Aug-30 21:05N 26°29' W 078°57'1 0.2
2017-Aug-30 15:41N 26°28' W 078°57'0 0.3
2017-Aug-30 15:23N 26°28' W 078°57'0 0.3
2017-Aug-30 15:00N 26°27' W 078°57'0 0.3
2017-Aug-30 14:28N 26°27' W 078°57'0 0.4
2017-Aug-30 13:39N 26°27' W 078°57'0 0.4
2017-Aug-30 13:30N 26°27' W 078°57'0 0.4
2017-Aug-30 12:48N 26°27' W 078°57'0 0.4
2017-Aug-30 12:28N 26°27' W 078°56'0 0.4
2017-Aug-30 12:00N 26°27' W 078°56'0 0.3
2017-Aug-30 11:30N 26°26' W 078°56'0 0.3
2017-Aug-30 10:57N 26°26' W 078°56'2 1.1
2017-Aug-30 09:12N 26°25' W 078°58'0 0.4
2017-Aug-30 08:22N 26°25' W 078°57'1 0.9
2017-Aug-30 07:32N 26°25' W 078°56'4 4.6
2017-Aug-30 06:47N 26°28' W 078°58'0 0.5
2017-Aug-30 05:52N 26°28' W 078°58'0 0.6
2017-Aug-30 05:30N 26°28' W 078°58'0 0.6
2017-Aug-30 04:43N 26°28' W 078°58'0 0.6
2017-Aug-30 04:30N 26°27' W 078°57'0 0.6
2017-Aug-30 03:59N 26°27' W 078°57'0 0.6
2017-Aug-30 03:15N 26°27' W 078°58'0 0.7
2017-Aug-30 02:52N 26°26' W 078°58'0 0.7
2017-Aug-30 02:30N 26°26' W 078°58'46 3.1
2017-Aug-29 11:52N 25°48' W 079°26'615.7
2017-Aug-29 11:30N 25°42' W 079°27'1015.7
2017-Aug-29 10:51N 25°32' W 079°29'  
Track history (hours):
 
Tides and Currents Weather Stations Pressure Air Temp Water Temp Dewpoint Dewpoint Depression Visibility Wind Speed Wind Dir Waves Ship Positions

Theo T

Last reported at 2017-Sep-07 03:00 UTC. Time now 2017-Sep-21 17:49 UTC.
Position N 25°44' W 079°26'.
Warning: this ship's position is 14 days out of date.

Length 227 m; draft 8.2 m.

Type: Tanker. MMSI: 311538000.

Date/timePositionNaut miles runAvg speedWind from/ knotsBaromVisibWave heightAir tempDewpointWater temp
2017-Sep-07 03:00N 25°44' W 079°26'610.8
2017-Sep-07 02:30N 25°49' W 079°25'510.7
2017-Sep-07 02:00N 25°55' W 079°24'  
2017-Sep-03 04:35N 26°28' W 079°03'1 0.8
2017-Sep-03 03:53N 26°28' W 079°02'0 0.6
2017-Sep-03 03:11N 26°27' W 079°02'0 0.6
2017-Sep-03 03:00N 26°27' W 079°02'1 0.7
2017-Sep-03 02:09N 26°27' W 079°01'0 0.7
2017-Sep-03 01:55N 26°27' W 079°01'0 0.6
2017-Sep-03 01:30N 26°27' W 079°01'0 0.6
2017-Sep-03 00:51N 26°27' W 079°00'4 0.5
2017-Sep-02 15:36N 26°26' W 079°05'2 1.0
2017-Sep-02 14:00N 26°25' W 079°04'0 0.8
2017-Sep-02 13:30N 26°25' W 079°03'0 0.7
2017-Sep-02 13:00N 26°25' W 079°03'1 0.8
2017-Sep-02 11:40N 26°25' W 079°02'0 0.5
2017-Sep-02 11:30N 26°25' W 079°02'0 0.5
2017-Sep-02 10:58N 26°25' W 079°01'3 0.1
2017-Sep-01 04:37N 26°26' W 078°58'3 0.5
2017-Aug-31 23:17N 26°26' W 079°00'0 0.5
2017-Aug-31 22:54N 26°26' W 079°00'4 0.2
2017-Aug-30 21:05N 26°29' W 078°57'1 0.2
2017-Aug-30 15:41N 26°28' W 078°57'0 0.3
2017-Aug-30 15:23N 26°28' W 078°57'0 0.3
2017-Aug-30 15:00N 26°27' W 078°57'0 0.3
2017-Aug-30 14:28N 26°27' W 078°57'0 0.4
2017-Aug-30 13:39N 26°27' W 078°57'0 0.4
2017-Aug-30 13:30N 26°27' W 078°57'0 0.4
2017-Aug-30 12:48N 26°27' W 078°57'0 0.4
2017-Aug-30 12:28N 26°27' W 078°56'0 0.4
2017-Aug-30 12:00N 26°27' W 078°56'0 0.3
2017-Aug-30 11:30N 26°26' W 078°56'0 0.3
2017-Aug-30 10:57N 26°26' W 078°56'2 1.1
2017-Aug-30 09:12N 26°25' W 078°58'0 0.4
2017-Aug-30 08:22N 26°25' W 078°57'1 0.9
2017-Aug-30 07:32N 26°25' W 078°56'4 4.6
2017-Aug-30 06:47N 26°28' W 078°58'0 0.5
2017-Aug-30 05:52N 26°28' W 078°58'0 0.6
2017-Aug-30 05:30N 26°28' W 078°58'0 0.6
2017-Aug-30 04:43N 26°28' W 078°58'0 0.6
2017-Aug-30 04:30N 26°27' W 078°57'0 0.6
2017-Aug-30 03:59N 26°27' W 078°57'0 0.6
2017-Aug-30 03:15N 26°27' W 078°58'0 0.7
2017-Aug-30 02:52N 26°26' W 078°58'0 0.7
2017-Aug-30 02:30N 26°26' W 078°58'46 3.1
2017-Aug-29 11:52N 25°48' W 079°26'615.7
2017-Aug-29 11:30N 25°42' W 079°27'1015.7
2017-Aug-29 10:51N 25°32' W 079°29'  

Dump ship's entire track history